Terminal Aerodrome Forecast
Issued by NWS

Home | Current Version | Previous Version | Text Only | Print | Product List | Glossary On
Versions: 1 2 3 4 5 6 7 8 9 10 11 12 13 14 15 16 17 18 19
000
FTUS43 KLSX 231120
TAFSUS
TAF
KSUS 231120Z 2312/2412 22007KT P6SM VCSH BKN045
     FM231300 26007KT P6SM -SHRA VCTS SCT025CB BKN040
     FM231500 30008KT P6SM VCSH OVC035
     FM231700 34010KT P6SM BKN050
     FM232100 34010KT P6SM FEW250
     FM240100 32005KT P6SM FEW250=

USA.gov is the U.S. government's official web portal to all federal, state and local government web resources and services.